sensor_id;sensor_type;location;lat;lon;timestamp;pressure;altitude;pressure_sealevel;temperature;humidity
73429;BME280;61643;49.564;17.412;2023-07-31T00:01:35;97927.69;;;16.11;100.00
73429;BME280;61643;49.564;17.412;2023-07-31T00:04:01;97935.34;;;16.09;100.00
73429;BME280;61643;49.564;17.412;2023-07-31T00:06:27;97942.66;;;16.08;100.00
73429;BME280;61643;49.564;17.412;2023-07-31T00:08:52;97946.00;;;16.05;100.00
73429;BME280;61643;49.564;17.412;2023-07-31T00:11:18;97943.34;;;16.00;100.00
73429;BME280;61643;49.564;17.412;2023-07-31T00:13:44;97951.06;;;15.93;100.00
73429;BME280;61643;49.564;17.412;2023-07-31T00:16:10;97946.25;;;15.90;100.00
73429;BME280;61643;49.564;17.412;2023-07-31T00:18:36;97956.00;;;15.91;100.00
73429;BME280;61643;49.564;17.412;2023-07-31T00:21:02;97964.16;;;15.91;100.00
73429;BME280;61643;49.564;17.412;2023-07-31T00:23:28;97961.22;;;15.88;100.00
73429;BME280;61643;49.564;17.412;2023-07-31T00:25:54;97974.28;;;15.86;100.00
73429;BME280;61643;49.564;17.412;2023-07-31T00:28:20;97973.47;;;15.85;100.00
73429;BME280;61643;49.564;17.412;2023-07-31T00:30:46;97967.53;;;15.83;100.00
73429;BME280;61643;49.564;17.412;2023-07-31T00:33:12;97963.06;;;15.73;100.00
73429;BME280;61643;49.564;17.412;2023-07-31T00:35:38;97970.41;;;15.73;100.00
73429;BME280;61643;49.564;17.412;2023-07-31T00:38:04;97961.25;;;15.69;100.00
73429;BME280;61643;49.564;17.412;2023-07-31T00:40:34;97972.09;;;15.69;100.00
73429;BME280;61643;49.564;17.412;2023-07-31T00:43:01;97967.28;;;15.66;100.00
73429;BME280;61643;49.564;17.412;2023-07-31T00:45:26;97967.84;;;15.63;100.00
73429;BME280;61643;49.564;17.412;2023-07-31T00:47:54;97971.16;;;15.60;100.00
73429;BME280;61643;49.564;17.412;2023-07-31T00:50:22;97967.34;;;15.61;100.00
73429;BME280;61643;49.564;17.412;2023-07-31T00:52:48;97967.94;;;15.58;100.00
73429;BME280;61643;49.564;17.412;2023-07-31T00:55:14;97977.16;;;15.57;100.00
73429;BME280;61643;49.564;17.412;2023-07-31T00:57:41;97985.63;;;15.55;100.00
73429;BME280;61643;49.564;17.412;2023-07-31T01:00:08;97983.47;;;15.52;100.00
73429;BME280;61643;49.564;17.412;2023-07-31T01:02:34;97969.16;;;15.47;100.00
73429;BME280;61643;49.564;17.412;2023-07-31T01:05:02;97968.63;;;15.45;100.00
73429;BME280;61643;49.564;17.412;2023-07-31T01:10:20;97976.09;;;15.34;100.00
73429;BME280;61643;49.564;17.412;2023-07-31T01:12:48;97975.38;;;15.28;100.00
73429;BME280;61643;49.564;17.412;2023-07-31T01:15:15;97979.19;;;15.27;100.00
73429;BME280;61643;49.564;17.412;2023-07-31T01:17:43;97987.31;;;15.27;100.00
73429;BME280;61643;49.564;17.412;2023-07-31T01:20:17;97986.88;;;15.20;100.00
73429;BME280;61643;49.564;17.412;2023-07-31T01:29:01;97986.44;;;15.13;100.00
73429;BME280;61643;49.564;17.412;2023-07-31T01:31:29;97982.91;;;15.13;100.00
73429;BME280;61643;49.564;17.412;2023-07-31T01:33:59;97989.22;;;15.08;100.00
73429;BME280;61643;49.564;17.412;2023-07-31T01:36:25;97995.22;;;15.05;100.00
73429;BME280;61643;49.564;17.412;2023-07-31T01:38:52;97993.09;;;15.02;100.00
73429;BME280;61643;49.564;17.412;2023-07-31T01:41:18;97992.03;;;14.98;100.00
73429;BME280;61643;49.564;17.412;2023-07-31T01:43:45;98001.81;;;14.99;100.00
73429;BME280;61643;49.564;17.412;2023-07-31T01:46:11;97993.22;;;14.92;100.00
73429;BME280;61643;49.564;17.412;2023-07-31T01:48:37;97992.50;;;14.87;100.00
73429;BME280;61643;49.564;17.412;2023-07-31T01:51:03;97992.50;;;14.87;100.00
73429;BME280;61643;49.564;17.412;2023-07-31T01:53:32;97994.94;;;14.83;100.00
73429;BME280;61643;49.564;17.412;2023-07-31T01:55:59;97999.56;;;14.83;100.00
73429;BME280;61643;49.564;17.412;2023-07-31T01:58:25;98002.84;;;14.79;100.00
73429;BME280;61643;49.564;17.412;2023-07-31T02:00:51;97998.00;;;14.76;100.00
73429;BME280;61643;49.564;17.412;2023-07-31T02:03:17;97998.81;;;14.77;100.00
73429;BME280;61643;49.564;17.412;2023-07-31T02:05:49;97996.19;;;14.72;100.00
73429;BME280;61643;49.564;17.412;2023-07-31T02:08:16;97996.69;;;14.74;100.00
73429;BME280;61643;49.564;17.412;2023-07-31T02:10:42;98002.22;;;14.64;100.00
73429;BME280;61643;49.564;17.412;2023-07-31T02:13:08;98012.59;;;14.57;100.00
73429;BME280;61643;49.564;17.412;2023-07-31T02:15:35;98013.19;;;14.54;100.00
73429;BME280;61643;49.564;17.412;2023-07-31T02:18:01;98012.06;;;14.55;100.00
73429;BME280;61643;49.564;17.412;2023-07-31T02:20:27;98004.00;;;14.50;100.00
73429;BME280;61643;49.564;17.412;2023-07-31T02:22:53;98011.56;;;14.53;100.00
73429;BME280;61643;49.564;17.412;2023-07-31T02:25:19;98008.53;;;14.54;100.00
73429;BME280;61643;49.564;17.412;2023-07-31T02:27:45;98010.97;;;14.56;100.00
73429;BME280;61643;49.564;17.412;2023-07-31T02:30:11;98020.19;;;14.55;100.00
73429;BME280;61643;49.564;17.412;2023-07-31T02:32:37;98016.66;;;14.54;100.00
73429;BME280;61643;49.564;17.412;2023-07-31T02:35:03;98015.00;;;14.58;100.00
73429;BME280;61643;49.564;17.412;2023-07-31T02:37:29;98012.38;;;14.53;100.00
73429;BME280;61643;49.564;17.412;2023-07-31T02:39:55;98010.16;;;14.55;100.00
73429;BME280;61643;49.564;17.412;2023-07-31T02:42:21;98014.75;;;14.55;100.00
73429;BME280;61643;49.564;17.412;2023-07-31T02:44:47;98013.69;;;14.56;100.00
73429;BME280;61643;49.564;17.412;2023-07-31T02:47:13;98006.38;;;14.56;100.00
73429;BME280;61643;49.564;17.412;2023-07-31T02:49:39;98008.31;;;14.51;100.00
73429;BME280;61643;49.564;17.412;2023-07-31T02:52:05;98005.44;;;14.42;100.00
73429;BME280;61643;49.564;17.412;2023-07-31T02:54:31;98002.50;;;14.34;100.00
73429;BME280;61643;49.564;17.412;2023-07-31T02:56:57;98006.63;;;14.26;100.00
73429;BME280;61643;49.564;17.412;2023-07-31T02:59:23;98008.03;;;14.23;100.00
73429;BME280;61643;49.564;17.412;2023-07-31T03:01:49;98005.81;;;14.25;100.00
73429;BME280;61643;49.564;17.412;2023-07-31T03:04:15;98000.97;;;14.22;100.00
73429;BME280;61643;49.564;17.412;2023-07-31T03:06:41;97990.16;;;14.22;100.00
73429;BME280;61643;49.564;17.412;2023-07-31T03:09:07;97982.84;;;14.23;100.00
73429;BME280;61643;49.564;17.412;2023-07-31T03:11:33;97987.97;;;14.24;100.00
73429;BME280;61643;49.564;17.412;2023-07-31T03:13:58;97987.97;;;14.24;100.00
73429;BME280;61643;49.564;17.412;2023-07-31T03:16:24;97997.94;;;14.29;100.00
73429;BME280;61643;49.564;17.412;2023-07-31T03:18:50;98008.25;;;13.98;100.00
73429;BME280;61643;49.564;17.412;2023-07-31T03:21:16;98019.34;;;13.97;100.00
73429;BME280;61643;49.564;17.412;2023-07-31T03:23:42;98013.06;;;14.06;100.00
73429;BME280;61643;49.564;17.412;2023-07-31T03:26:09;98006.22;;;14.14;100.00
73429;BME280;61643;49.564;17.412;2023-07-31T03:28:35;98009.41;;;14.21;100.00
73429;BME280;61643;49.564;17.412;2023-07-31T03:31:01;98018.59;;;13.91;100.00
73429;BME280;61643;49.564;17.412;2023-07-31T03:33:27;98013.38;;;14.00;100.00
73429;BME280;61643;49.564;17.412;2023-07-31T03:35:53;98009.22;;;14.07;100.00
73429;BME280;61643;49.564;17.412;2023-07-31T03:38:20;98014.38;;;14.09;100.00
73429;BME280;61643;49.564;17.412;2023-07-31T03:40:45;98021.09;;;14.11;100.00
73429;BME280;61643;49.564;17.412;2023-07-31T03:43:12;98018.63;;;14.15;100.00
73429;BME280;61643;49.564;17.412;2023-07-31T03:45:38;98023.22;;;14.19;100.00
73429;BME280;61643;49.564;17.412;2023-07-31T03:48:04;98016.28;;;14.08;100.00
73429;BME280;61643;49.564;17.412;2023-07-31T03:50:31;98017.44;;;13.97;100.00
73429;BME280;61643;49.564;17.412;2023-07-31T03:52:57;98024.25;;;13.90;100.00
73429;BME280;61643;49.564;17.412;2023-07-31T03:55:23;98031.88;;;13.88;100.00
73429;BME280;61643;49.564;17.412;2023-07-31T03:57:48;98024.56;;;13.88;100.00
73429;BME280;61643;49.564;17.412;2023-07-31T04:00:15;98023.41;;;13.99;100.00
73429;BME280;61643;49.564;17.412;2023-07-31T04:02:41;98015.53;;;14.03;100.00
73429;BME280;61643;49.564;17.412;2023-07-31T04:05:07;98016.25;;;14.13;100.00
73429;BME280;61643;49.564;17.412;2023-07-31T04:07:33;98020.53;;;14.14;100.00
73429;BME280;61643;49.564;17.412;2023-07-31T04:09:59;98011.63;;;14.14;100.00
73429;BME280;61643;49.564;17.412;2023-07-31T04:12:25;98010.69;;;14.00;100.00
73429;BME280;61643;49.564;17.412;2023-07-31T04:14:52;98024.44;;;14.03;100.00
73429;BME280;61643;49.564;17.412;2023-07-31T04:17:18;98008.72;;;14.05;100.00
73429;BME280;61643;49.564;17.412;2023-07-31T04:19:44;98013.81;;;14.12;100.00
73429;BME280;61643;49.564;17.412;2023-07-31T04:22:10;98015.09;;;14.19;100.00
73429;BME280;61643;49.564;17.412;2023-07-31T04:24:36;98017.28;;;14.17;100.00
73429;BME280;61643;49.564;17.412;2023-07-31T04:27:02;98016.13;;;14.23;100.00
73429;BME280;61643;49.564;17.412;2023-07-31T04:29:28;98025.56;;;14.26;100.00
73429;BME280;61643;49.564;17.412;2023-07-31T04:31:54;98028.53;;;14.35;100.00
73429;BME280;61643;49.564;17.412;2023-07-31T04:34:20;98020.63;;;14.33;100.00
73429;BME280;61643;49.564;17.412;2023-07-31T04:36:46;98025.47;;;14.41;100.00
73429;BME280;61643;49.564;17.412;2023-07-31T04:39:12;98021.34;;;14.49;100.00
73429;BME280;61643;49.564;17.412;2023-07-31T04:41:37;98024.50;;;14.56;100.00
73429;BME280;61643;49.564;17.412;2023-07-31T04:44:03;98032.38;;;14.57;100.00
73429;BME280;61643;49.564;17.412;2023-07-31T04:46:30;98035.53;;;14.64;100.00
73429;BME280;61643;49.564;17.412;2023-07-31T04:48:56;98036.81;;;14.72;100.00
73429;BME280;61643;49.564;17.412;2023-07-31T04:51:22;98045.41;;;14.79;100.00
73429;BME280;61643;49.564;17.412;2023-07-31T04:53:49;98040.00;;;14.79;100.00
73429;BME280;61643;49.564;17.412;2023-07-31T04:56:16;98038.28;;;14.83;100.00
73429;BME280;61643;49.564;17.412;2023-07-31T04:58:42;98040.91;;;14.93;100.00
73429;BME280;61643;49.564;17.412;2023-07-31T05:01:07;98042.72;;;14.98;100.00
73429;BME280;61643;49.564;17.412;2023-07-31T05:03:33;98040.84;;;14.98;100.00
73429;BME280;61643;49.564;17.412;2023-07-31T05:05:59;98051.31;;;15.05;100.00
73429;BME280;61643;49.564;17.412;2023-07-31T05:08:25;98051.91;;;15.02;100.00
73429;BME280;61643;49.564;17.412;2023-07-31T05:10:51;98058.09;;;15.07;100.00
73429;BME280;61643;49.564;17.412;2023-07-31T05:13:17;98048.88;;;15.08;100.00
73429;BME280;61643;49.564;17.412;2023-07-31T05:15:43;98062.56;;;15.17;100.00
73429;BME280;61643;49.564;17.412;2023-07-31T05:18:09;98061.34;;;15.28;100.00
73429;BME280;61643;49.564;17.412;2023-07-31T05:20:35;98056.97;;;15.32;100.00
73429;BME280;61643;49.564;17.412;2023-07-31T05:23:01;98061.16;;;15.43;100.00
73429;BME280;61643;49.564;17.412;2023-07-31T05:25:27;98065.50;;;15.44;100.00
73429;BME280;61643;49.564;17.412;2023-07-31T05:27:53;98073.50;;;15.54;100.00
73429;BME280;61643;49.564;17.412;2023-07-31T05:30:19;98073.28;;;15.51;100.00
73429;BME280;61643;49.564;17.412;2023-07-31T05:32:47;98072.69;;;15.54;100.00
73429;BME280;61643;49.564;17.412;2023-07-31T05:35:12;98068.31;;;15.58;100.00
73429;BME280;61643;49.564;17.412;2023-07-31T05:37:38;98076.13;;;15.59;100.00
73429;BME280;61643;49.564;17.412;2023-07-31T05:40:05;98067.34;;;15.67;100.00
73429;BME280;61643;49.564;17.412;2023-07-31T05:42:31;98068.75;;;15.65;100.00
73429;BME280;61643;49.564;17.412;2023-07-31T05:44:57;98071.38;;;15.70;100.00
73429;BME280;61643;49.564;17.412;2023-07-31T05:47:23;98069.91;;;15.77;100.00
73429;BME280;61643;49.564;17.412;2023-07-31T05:49:49;98069.84;;;15.83;100.00
73429;BME280;61643;49.564;17.412;2023-07-31T05:52:18;98074.63;;;15.91;100.00
73429;BME280;61643;49.564;17.412;2023-07-31T05:54:44;98071.59;;;15.92;100.00
73429;BME280;61643;49.564;17.412;2023-07-31T05:57:11;98076.44;;;15.95;100.00
73429;BME280;61643;49.564;17.412;2023-07-31T05:59:37;98068.75;;;16.02;100.00
73429;BME280;61643;49.564;17.412;2023-07-31T06:02:04;98081.13;;;16.08;100.00
73429;BME280;61643;49.564;17.412;2023-07-31T06:04:30;98082.16;;;16.12;100.00
73429;BME280;61643;49.564;17.412;2023-07-31T06:06:56;98081.56;;;16.15;100.00
73429;BME280;61643;49.564;17.412;2023-07-31T06:09:22;98079.28;;;16.22;100.00
73429;BME280;61643;49.564;17.412;2023-07-31T06:11:48;98080.91;;;16.23;100.00
73429;BME280;61643;49.564;17.412;2023-07-31T06:14:14;98081.00;;;16.32;100.00
73429;BME280;61643;49.564;17.412;2023-07-31T06:16:40;98079.41;;;16.31;100.00
73429;BME280;61643;49.564;17.412;2023-07-31T06:19:06;98084.72;;;16.22;100.00
73429;BME280;61643;49.564;17.412;2023-07-31T06:21:33;98086.84;;;16.25;100.00
73429;BME280;61643;49.564;17.412;2023-07-31T06:23:59;98089.06;;;16.23;100.00
73429;BME280;61643;49.564;17.412;2023-07-31T06:26:25;98085.38;;;16.14;100.00
73429;BME280;61643;49.564;17.412;2023-07-31T06:28:51;98082.75;;;16.09;100.00
73429;BME280;61643;49.564;17.412;2023-07-31T06:31:17;98078.53;;;16.17;100.00
73429;BME280;61643;49.564;17.412;2023-07-31T06:33:46;98080.47;;;16.16;100.00
73429;BME280;61643;49.564;17.412;2023-07-31T06:36:12;98083.91;;;16.22;100.00
73429;BME280;61643;49.564;17.412;2023-07-31T06:38:38;98073.91;;;16.17;100.00
73429;BME280;61643;49.564;17.412;2023-07-31T06:41:04;98091.16;;;16.27;100.00
73429;BME280;61643;49.564;17.412;2023-07-31T06:43:30;98081.00;;;16.32;100.00
73429;BME280;61643;49.564;17.412;2023-07-31T06:45:56;98080.56;;;16.44;100.00
73429;BME280;61643;49.564;17.412;2023-07-31T06:48:22;98088.53;;;16.54;100.00
73429;BME280;61643;49.564;17.412;2023-07-31T06:50:48;98090.38;;;16.58;100.00
73429;BME280;61643;49.564;17.412;2023-07-31T06:53:14;98078.91;;;16.61;100.00
73429;BME280;61643;49.564;17.412;2023-07-31T06:55:39;98090.16;;;16.55;100.00
73429;BME280;61643;49.564;17.412;2023-07-31T06:58:06;98089.13;;;16.51;100.00
73429;BME280;61643;49.564;17.412;2023-07-31T07:00:32;98087.44;;;16.55;100.00
73429;BME280;61643;49.564;17.412;2023-07-31T07:02:58;98091.91;;;16.64;100.00
73429;BME280;61643;49.564;17.412;2023-07-31T07:05:24;98087.00;;;16.80;100.00
73429;BME280;61643;49.564;17.412;2023-07-31T07:07:50;98102.22;;;16.95;100.00
73429;BME280;61643;49.564;17.412;2023-07-31T07:10:17;98097.91;;;17.07;100.00
73429;BME280;61643;49.564;17.412;2023-07-31T07:12:44;98097.00;;;16.98;100.00
73429;BME280;61643;49.564;17.412;2023-07-31T07:15:10;98100.94;;;17.06;100.00
73429;BME280;61643;49.564;17.412;2023-07-31T07:17:36;98100.31;;;17.22;100.00
73429;BME280;61643;49.564;17.412;2023-07-31T07:20:02;98111.03;;;17.33;100.00
73429;BME280;61643;49.564;17.412;2023-07-31T07:22:29;98103.25;;;17.40;100.00
73429;BME280;61643;49.564;17.412;2023-07-31T07:24:55;98095.31;;;17.43;100.00
73429;BME280;61643;49.564;17.412;2023-07-31T07:27:21;98099.66;;;17.58;100.00
73429;BME280;61643;49.564;17.412;2023-07-31T07:29:47;98104.34;;;17.52;100.00
73429;BME280;61643;49.564;17.412;2023-07-31T07:32:15;98104.97;;;17.49;100.00
73429;BME280;61643;49.564;17.412;2023-07-31T07:34:43;98098.41;;;17.50;100.00
73429;BME280;61643;49.564;17.412;2023-07-31T07:37:09;98106.88;;;17.62;100.00
73429;BME280;61643;49.564;17.412;2023-07-31T07:39:35;98099.19;;;17.51;98.95
73429;BME280;61643;49.564;17.412;2023-07-31T07:42:01;98092.59;;;17.57;100.00
73429;BME280;61643;49.564;17.412;2023-07-31T07:44:27;98096.09;;;17.71;100.00
73429;BME280;61643;49.564;17.412;2023-07-31T07:46:52;98095.38;;;17.79;100.00
73429;BME280;61643;49.564;17.412;2023-07-31T07:49:18;98094.63;;;17.87;100.00
73429;BME280;61643;49.564;17.412;2023-07-31T07:51:44;98093.53;;;17.88;95.35
73429;BME280;61643;49.564;17.412;2023-07-31T07:54:10;98092.69;;;18.01;96.72
73429;BME280;61643;49.564;17.412;2023-07-31T07:56:36;98084.72;;;18.05;96.35
73429;BME280;61643;49.564;17.412;2023-07-31T07:59:02;98088.09;;;18.10;94.53
73429;BME280;61643;49.564;17.412;2023-07-31T08:01:28;98089.34;;;18.04;94.36
73429;BME280;61643;49.564;17.412;2023-07-31T08:03:54;98085.56;;;18.14;95.75
73429;BME280;61643;49.564;17.412;2023-07-31T08:06:20;98088.38;;;18.23;97.35
73429;BME280;61643;49.564;17.412;2023-07-31T08:08:47;98087.25;;;18.24;94.34
73429;BME280;61643;49.564;17.412;2023-07-31T08:11:13;98084.09;;;18.30;93.36
73429;BME280;61643;49.564;17.412;2023-07-31T08:13:39;98082.34;;;18.34;92.24
73429;BME280;61643;49.564;17.412;2023-07-31T08:16:05;98081.94;;;18.41;90.57
73429;BME280;61643;49.564;17.412;2023-07-31T08:18:31;98087.25;;;18.46;93.24
73429;BME280;61643;49.564;17.412;2023-07-31T08:20:58;98076.66;;;18.44;93.86
73429;BME280;61643;49.564;17.412;2023-07-31T08:23:24;98074.88;;;18.40;90.05
73429;BME280;61643;49.564;17.412;2023-07-31T08:25:50;98077.88;;;18.52;89.36
73429;BME280;61643;49.564;17.412;2023-07-31T08:28:16;98073.56;;;18.59;90.42
73429;BME280;61643;49.564;17.412;2023-07-31T08:30:42;98073.25;;;18.61;87.33
73429;BME280;61643;49.564;17.412;2023-07-31T08:33:08;98071.41;;;18.70;88.92
73429;BME280;61643;49.564;17.412;2023-07-31T08:35:34;98068.84;;;18.74;82.64
73429;BME280;61643;49.564;17.412;2023-07-31T08:38:00;98062.31;;;18.83;86.20
73429;BME280;61643;49.564;17.412;2023-07-31T08:40:26;98061.84;;;18.90;84.23
73429;BME280;61643;49.564;17.412;2023-07-31T08:42:55;98065.13;;;19.00;88.68
73429;BME280;61643;49.564;17.412;2023-07-31T08:45:28;98058.69;;;18.96;88.52
73429;BME280;61643;49.564;17.412;2023-07-31T08:47:55;98066.56;;;19.06;82.94
73429;BME280;61643;49.564;17.412;2023-07-31T08:50:21;98068.06;;;19.12;84.03
73429;BME280;61643;49.564;17.412;2023-07-31T08:52:51;98058.13;;;19.16;85.17
73429;BME280;61643;49.564;17.412;2023-07-31T08:55:17;98067.63;;;19.28;83.35
73429;BME280;61643;49.564;17.412;2023-07-31T08:57:51;98058.66;;;19.36;84.48
73429;BME280;61643;49.564;17.412;2023-07-31T09:00:19;98050.44;;;19.36;84.24
73429;BME280;61643;49.564;17.412;2023-07-31T09:03:08;98052.06;;;19.37;79.18
73429;BME280;61643;49.564;17.412;2023-07-31T09:05:36;98043.78;;;19.50;82.79
73429;BME280;61643;49.564;17.412;2023-07-31T09:08:02;98054.06;;;19.53;79.42
73429;BME280;61643;49.564;17.412;2023-07-31T09:10:30;98056.97;;;19.57;77.87
73429;BME280;61643;49.564;17.412;2023-07-31T09:12:56;98057.63;;;19.62;79.55
73429;BME280;61643;49.564;17.412;2023-07-31T09:15:23;98054.56;;;19.73;78.60
73429;BME280;61643;49.564;17.412;2023-07-31T09:17:59;98053.78;;;19.81;80.68
73429;BME280;61643;49.564;17.412;2023-07-31T09:20:28;98052.66;;;19.82;77.16
73429;BME280;61643;49.564;17.412;2023-07-31T09:22:55;98060.22;;;19.85;77.22
73429;BME280;61643;49.564;17.412;2023-07-31T09:25:23;98052.19;;;19.88;77.31
73429;BME280;61643;49.564;17.412;2023-07-31T09:27:53;98059.72;;;19.91;74.33
73429;BME280;61643;49.564;17.412;2023-07-31T09:30:20;98048.00;;;19.99;75.78
73429;BME280;61643;49.564;17.412;2023-07-31T09:32:47;98049.94;;;19.99;75.89
73429;BME280;61643;49.564;17.412;2023-07-31T09:35:28;98037.09;;;19.99;76.51
73429;BME280;61643;49.564;17.412;2023-07-31T09:37:59;98040.94;;;20.07;77.64
73429;BME280;61643;49.564;17.412;2023-07-31T09:40:26;98035.94;;;20.09;78.80
73429;BME280;61643;49.564;17.412;2023-07-31T09:43:03;98029.16;;;20.15;76.35
73429;BME280;61643;49.564;17.412;2023-07-31T09:45:33;98027.09;;;20.21;76.48
73429;BME280;61643;49.564;17.412;2023-07-31T09:47:59;98023.25;;;20.30;77.98
73429;BME280;61643;49.564;17.412;2023-07-31T09:50:25;98026.13;;;20.34;76.23
73429;BME280;61643;49.564;17.412;2023-07-31T09:52:51;98018.09;;;20.37;74.39
73429;BME280;61643;49.564;17.412;2023-07-31T09:55:18;98024.00;;;20.48;74.31
73429;BME280;61643;49.564;17.412;2023-07-31T09:57:46;98016.75;;;20.52;71.58
73429;BME280;61643;49.564;17.412;2023-07-31T10:00:14;98016.09;;;20.63;71.25
73429;BME280;61643;49.564;17.412;2023-07-31T10:02:41;98011.06;;;20.74;69.27
73429;BME280;61643;49.564;17.412;2023-07-31T10:05:07;98001.38;;;20.85;64.04
73429;BME280;61643;49.564;17.412;2023-07-31T10:07:37;98003.88;;;20.99;62.13
73429;BME280;61643;49.564;17.412;2023-07-31T10:10:07;97995.13;;;21.14;63.59
73429;BME280;61643;49.564;17.412;2023-07-31T10:12:33;97993.75;;;21.29;63.73
73429;BME280;61643;49.564;17.412;2023-07-31T10:15:00;97988.38;;;21.41;62.64
73429;BME280;61643;49.564;17.412;2023-07-31T10:17:26;97995.94;;;21.65;64.10
73429;BME280;61643;49.564;17.412;2023-07-31T10:19:53;98003.16;;;21.69;60.04
73429;BME280;61643;49.564;17.412;2023-07-31T10:22:20;97994.25;;;21.72;60.94
73429;BME280;61643;49.564;17.412;2023-07-31T10:24:48;97990.66;;;21.59;61.22
73429;BME280;61643;49.564;17.412;2023-07-31T10:27:14;97987.00;;;21.55;58.92
73429;BME280;61643;49.564;17.412;2023-07-31T10:29:41;97991.44;;;21.60;60.47
73429;BME280;61643;49.564;17.412;2023-07-31T10:32:09;97988.91;;;21.55;58.14
73429;BME280;61643;49.564;17.412;2023-07-31T10:34:39;97994.00;;;21.65;57.05
73429;BME280;61643;49.564;17.412;2023-07-31T10:37:29;97992.06;;;21.66;57.89
73429;BME280;61643;49.564;17.412;2023-07-31T10:45:04;97988.78;;;21.72;60.79
73429;BME280;61643;49.564;17.412;2023-07-31T10:47:30;97986.19;;;21.55;55.33
73429;BME280;61643;49.564;17.412;2023-07-31T10:50:12;97978.38;;;21.66;59.02
73429;BME280;61643;49.564;17.412;2023-07-31T10:52:38;97978.00;;;21.67;58.00
73429;BME280;61643;49.564;17.412;2023-07-31T10:55:15;97969.16;;;21.70;58.22
73429;BME280;61643;49.564;17.412;2023-07-31T10:57:47;97973.28;;;21.76;60.17
73429;BME280;61643;49.564;17.412;2023-07-31T11:00:26;97966.66;;;21.77;60.52
73429;BME280;61643;49.564;17.412;2023-07-31T11:05:41;97959.44;;;21.93;60.55
73429;BME280;61643;49.564;17.412;2023-07-31T11:10:40;97948.31;;;22.11;61.50
73429;BME280;61643;49.564;17.412;2023-07-31T11:13:06;97946.97;;;22.17;60.80
73429;BME280;61643;49.564;17.412;2023-07-31T11:15:32;97945.81;;;22.18;59.22
73429;BME280;61643;49.564;17.412;2023-07-31T11:18:00;97946.19;;;22.16;59.88
73429;BME280;61643;49.564;17.412;2023-07-31T11:20:29;97942.88;;;22.23;57.86
73429;BME280;61643;49.564;17.412;2023-07-31T11:22:59;97931.69;;;22.28;56.28
73429;BME280;61643;49.564;17.412;2023-07-31T11:25:25;97939.44;;;22.26;55.40
73429;BME280;61643;49.564;17.412;2023-07-31T11:27:51;97934.22;;;22.33;56.70
73429;BME280;61643;49.564;17.412;2023-07-31T11:30:19;97925.41;;;22.39;56.54
73429;BME280;61643;49.564;17.412;2023-07-31T11:32:46;97919.47;;;22.37;58.42
73429;BME280;61643;49.564;17.412;2023-07-31T11:35:12;97919.47;;;22.37;57.97
73429;BME280;61643;49.564;17.412;2023-07-31T11:37:43;97914.84;;;22.05;57.07
73429;BME280;61643;49.564;17.412;2023-07-31T11:40:10;97905.28;;;22.23;56.66
73429;BME280;61643;49.564;17.412;2023-07-31T11:42:36;97908.06;;;22.47;56.79
73429;BME280;61643;49.564;17.412;2023-07-31T11:45:06;97907.66;;;22.70;55.50
73429;BME280;61643;49.564;17.412;2023-07-31T11:47:33;97898.97;;;22.92;58.13
73429;BME280;61643;49.564;17.412;2023-07-31T11:50:03;97906.25;;;23.12;52.52
73429;BME280;61643;49.564;17.412;2023-07-31T11:52:33;97904.50;;;23.20;54.15
73429;BME280;61643;49.564;17.412;2023-07-31T11:55:00;97908.16;;;23.24;57.44
73429;BME280;61643;49.564;17.412;2023-07-31T11:57:27;97905.09;;;23.13;52.60
73429;BME280;61643;49.564;17.412;2023-07-31T11:59:55;97904.19;;;23.21;53.90
73429;BME280;61643;49.564;17.412;2023-07-31T12:02:21;97895.84;;;23.18;58.14
73429;BME280;61643;49.564;17.412;2023-07-31T12:04:48;97898.38;;;23.11;55.69
73429;BME280;61643;49.564;17.412;2023-07-31T12:07:14;97883.38;;;23.08;54.65
73429;BME280;61643;49.564;17.412;2023-07-31T12:09:54;97883.72;;;22.94;53.32
73429;BME280;61643;49.564;17.412;2023-07-31T12:12:22;97881.31;;;23.05;54.98
73429;BME280;61643;49.564;17.412;2023-07-31T12:14:48;97869.31;;;23.10;56.31
73429;BME280;61643;49.564;17.412;2023-07-31T12:17:17;97874.91;;;23.13;55.30
73429;BME280;61643;49.564;17.412;2023-07-31T12:19:44;97874.00;;;23.09;54.63
73429;BME280;61643;49.564;17.412;2023-07-31T12:22:14;97872.84;;;23.10;54.80
73429;BME280;61643;49.564;17.412;2023-07-31T12:24:41;97861.88;;;22.98;56.98
73429;BME280;61643;49.564;17.412;2023-07-31T12:27:10;97855.75;;;22.89;56.99
73429;BME280;61643;49.564;17.412;2023-07-31T12:29:36;97853.69;;;22.86;59.19
73429;BME280;61643;49.564;17.412;2023-07-31T12:32:02;97854.56;;;22.90;57.58
73429;BME280;61643;49.564;17.412;2023-07-31T12:34:28;97852.06;;;22.97;57.71
73429;BME280;61643;49.564;17.412;2023-07-31T12:36:54;97852.13;;;23.13;59.48
73429;BME280;61643;49.564;17.412;2023-07-31T12:39:20;97843.13;;;23.40;54.31
73429;BME280;61643;49.564;17.412;2023-07-31T12:41:46;97843.50;;;23.66;52.30
73429;BME280;61643;49.564;17.412;2023-07-31T12:44:12;97844.09;;;23.87;52.31
73429;BME280;61643;49.564;17.412;2023-07-31T12:46:38;97839.03;;;23.89;50.97
73429;BME280;61643;49.564;17.412;2023-07-31T12:49:04;97835.94;;;24.07;52.81
73429;BME280;61643;49.564;17.412;2023-07-31T12:51:30;97828.78;;;24.18;52.59
73429;BME280;61643;49.564;17.412;2023-07-31T12:53:56;97830.53;;;24.10;56.70
73429;BME280;61643;49.564;17.412;2023-07-31T12:56:22;97815.38;;;24.00;51.01
73429;BME280;61643;49.564;17.412;2023-07-31T12:58:48;97813.50;;;23.89;53.75
73429;BME280;61643;49.564;17.412;2023-07-31T13:01:14;97810.03;;;23.76;54.71